createdAt,value
2019-01-18T00:02:23.468Z,3.20
2019-01-18T00:04:51.860Z,2.40
2019-01-18T00:07:23.185Z,3.23
2019-01-18T00:09:51.586Z,3.20
2019-01-18T00:12:19.961Z,1.73
2019-01-18T00:14:49.984Z,2.60
2019-01-18T00:17:18.370Z,3.23
2019-01-18T00:19:47.165Z,1.50
2019-01-18T00:22:22.810Z,3.50
2019-01-18T00:24:48.333Z,2.37
2019-01-18T00:27:19.568Z,1.50
2019-01-18T00:29:47.917Z,1.70
2019-01-18T00:32:16.309Z,2.10
2019-01-18T00:34:46.329Z,1.47
2019-01-18T00:37:14.729Z,3.90
2019-01-18T00:39:46.274Z,3.27
2019-01-18T00:42:19.345Z,2.77
2019-01-18T00:44:47.726Z,5.27
2019-01-18T00:47:22.991Z,3.23
2019-01-18T00:49:54.570Z,2.17
2019-01-18T00:52:28.610Z,1.90
2019-01-18T00:54:59.715Z,2.07
2019-01-18T00:57:28.096Z,3.93
2019-01-18T00:59:56.485Z,2.57
2019-01-18T01:02:26.509Z,3.23
2019-01-18T01:04:54.901Z,3.73
2019-01-18T01:07:24.929Z,6.27
2019-01-18T01:09:56.305Z,4.87
2019-01-18T01:12:27.614Z,4.00
2019-01-18T01:14:55.993Z,1.47
2019-01-18T01:17:33.069Z,4.47
2019-01-18T01:20:02.893Z,4.37
2019-01-18T01:22:32.972Z,3.57
2019-01-18T01:25:05.166Z,3.50
2019-01-18T01:27:33.604Z,1.87
2019-01-18T01:30:03.629Z,1.00
2019-01-18T01:32:37.805Z,1.17
2019-01-18T01:35:06.339Z,4.63
2019-01-18T01:37:35.834Z,3.77
2019-01-18T01:40:08.473Z,1.90
2019-01-18T01:42:39.593Z,3.30
2019-01-18T01:45:11.001Z,3.17
2019-01-18T01:47:43.564Z,3.87
2019-01-18T01:50:25.945Z,6.63
2019-01-18T01:52:55.274Z,2.40
2019-01-18T01:55:23.684Z,2.93
2019-01-18T01:57:52.314Z,2.90
2019-01-18T02:00:29.417Z,1.60
2019-01-18T02:02:57.797Z,1.27
2019-01-18T02:05:26.185Z,1.43
2019-01-18T02:07:54.785Z,3.77
2019-01-18T02:10:27.541Z,5.17
2019-01-18T02:12:58.876Z,6.30
2019-01-18T02:15:27.567Z,1.73
2019-01-18T02:17:58.534Z,2.93
2019-01-18T02:20:33.437Z,2.30
2019-01-18T02:23:04.753Z,1.87
2019-01-18T02:25:39.297Z,2.40
2019-01-18T02:28:09.328Z,2.73
2019-01-18T02:30:48.145Z,1.20
2019-01-18T02:33:19.462Z,2.20
2019-01-18T02:36:12.785Z,5.77
2019-01-18T02:38:45.383Z,3.83
2019-01-18T02:41:16.996Z,1.07
2019-01-18T02:43:53.788Z,3.43
2019-01-18T02:46:25.110Z,4.30
2019-01-18T02:48:59.332Z,3.97
2019-01-18T02:51:27.719Z,1.30
2019-01-18T02:54:01.038Z,2.17
2019-01-18T02:56:32.086Z,2.60
2019-01-18T02:59:03.642Z,1.70
2019-01-18T03:01:39.592Z,4.13
2019-01-18T03:04:11.868Z,3.30
2019-01-18T03:06:39.986Z,1.33
2019-01-18T03:09:10.246Z,1.83
2019-01-18T03:11:41.577Z,3.33
2019-01-18T03:14:13.014Z,3.10
2019-01-18T03:16:46.514Z,3.47
2019-01-18T03:19:17.682Z,3.33
2019-01-18T03:21:51.855Z,3.37
2019-01-18T03:24:22.928Z,4.43
2019-01-18T03:26:55.786Z,4.67
2019-01-18T03:29:21.691Z,3.07
2019-01-18T03:31:51.707Z,2.43
2019-01-18T03:34:25.768Z,4.97
2019-01-18T03:36:59.923Z,3.40
2019-01-18T03:39:28.327Z,1.50
2019-01-18T03:41:56.701Z,4.30
2019-01-18T03:44:25.098Z,4.73
2019-01-18T03:46:59.197Z,3.50
2019-01-18T03:49:29.153Z,3.90
2019-01-18T03:51:57.775Z,3.17
2019-01-18T03:54:28.925Z,1.80
2019-01-18T03:56:57.316Z,1.20
2019-01-18T03:59:25.690Z,3.23
2019-01-18T04:01:55.147Z,3.30
2019-01-18T04:04:23.538Z,1.27
2019-01-18T04:06:52.955Z,4.60
2019-01-18T04:09:26.970Z,0.93
2019-01-18T04:11:55.579Z,1.87
2019-01-18T04:14:23.964Z,4.00
2019-01-18T04:16:52.413Z,4.57
2019-01-18T04:19:20.821Z,3.13
2019-01-18T04:21:50.763Z,4.53
2019-01-18T04:24:19.137Z,3.53
2019-01-18T04:26:52.993Z,2.80
2019-01-18T04:29:24.456Z,2.30
2019-01-18T04:31:52.845Z,2.83
2019-01-18T04:34:21.245Z,2.37
2019-01-18T04:36:49.632Z,2.40
2019-01-18T04:39:18.279Z,1.90
2019-01-18T04:41:46.919Z,4.07
2019-01-18T04:44:22.299Z,1.93
2019-01-18T04:46:52.333Z,5.60
2019-01-18T04:49:30.071Z,2.00
2019-01-18T04:51:58.470Z,7.43
2019-01-18T04:54:26.856Z,4.90
2019-01-18T04:57:00.794Z,5.20
2019-01-18T04:59:29.208Z,6.73
2019-01-18T05:01:57.841Z,1.70
2019-01-18T05:04:32.365Z,3.50
2019-01-18T05:07:07.000Z,2.03
2019-01-18T05:09:35.374Z,3.77
2019-01-18T05:12:03.756Z,3.40
2019-01-18T05:14:35.097Z,2.77
2019-01-18T05:17:09.430Z,3.77
2019-01-18T05:19:43.420Z,4.20
2019-01-18T05:22:16.362Z,3.80
2019-01-18T05:24:49.399Z,4.60
2019-01-18T05:27:14.862Z,3.93
2019-01-18T05:29:44.177Z,6.33
2019-01-18T05:32:13.457Z,3.40
2019-01-18T05:34:51.795Z,5.37
2019-01-18T05:37:26.064Z,3.77
2019-01-18T05:39:57.673Z,5.57
2019-01-18T05:42:29.050Z,4.57
2019-01-18T05:44:57.677Z,2.97
2019-01-18T05:47:28.804Z,4.50
2019-01-18T05:49:59.706Z,3.57
2019-01-18T05:52:29.708Z,8.83
2019-01-18T05:55:00.569Z,5.63
2019-01-18T05:57:30.825Z,5.87
2019-01-18T06:00:01.953Z,5.53
2019-01-18T06:02:34.907Z,3.33
2019-01-18T06:05:06.805Z,8.13
2019-01-18T06:07:39.526Z,3.63
2019-01-18T06:10:11.153Z,3.77
2019-01-18T06:12:45.501Z,6.47
2019-01-18T06:15:14.019Z,3.10
2019-01-18T06:17:45.683Z,6.23
2019-01-18T06:20:18.255Z,6.17
2019-01-18T06:22:49.289Z,5.00
2019-01-18T06:25:17.701Z,4.37
2019-01-18T06:27:46.103Z,8.50
2019-01-18T06:30:17.885Z,3.40
2019-01-18T06:32:52.777Z,3.10
2019-01-18T06:35:26.583Z,8.30
2019-01-18T06:37:55.490Z,6.83
2019-01-18T06:40:25.320Z,5.10
2019-01-18T06:42:53.737Z,11.50
2019-01-18T06:45:33.661Z,9.33
2019-01-18T06:48:02.300Z,8.77
2019-01-18T06:50:30.704Z,6.63
2019-01-18T06:53:01.835Z,12.87
2019-01-18T06:55:30.236Z,8.80
2019-01-18T06:58:00.257Z,10.87
2019-01-18T07:00:33.316Z,7.27
2019-01-18T07:03:04.573Z,7.50
2019-01-18T07:05:32.962Z,8.73
2019-01-18T07:08:04.783Z,5.67
2019-01-18T07:10:33.251Z,8.60
2019-01-18T07:13:05.369Z,11.10
2019-01-18T07:15:35.381Z,9.93
2019-01-18T07:18:03.767Z,10.43
2019-01-18T07:20:35.150Z,10.23
2019-01-18T07:23:03.541Z,12.40
2019-01-18T07:25:33.277Z,12.90
2019-01-18T07:28:16.497Z,14.07
2019-01-18T07:30:44.881Z,15.53
2019-01-18T07:33:17.920Z,16.37
2019-01-18T07:35:50.658Z,14.57
2019-01-18T07:38:19.051Z,15.20
2019-01-18T07:40:53.357Z,15.40
2019-01-18T07:43:32.229Z,11.27
2019-01-18T07:46:00.901Z,9.40
2019-01-18T07:48:31.968Z,12.10
2019-01-18T07:51:00.444Z,11.40
2019-01-18T07:53:40.538Z,10.13
2019-01-18T07:56:08.955Z,12.70
2019-01-18T07:58:40.233Z,9.47
2019-01-18T08:01:12.789Z,6.93
2019-01-18T08:03:49.968Z,7.90
2019-01-18T08:06:20.007Z,7.93
2019-01-18T08:08:48.401Z,7.50
2019-01-18T08:11:16.870Z,7.77
2019-01-18T08:13:48.594Z,8.00
2019-01-18T08:16:18.345Z,9.00
2019-01-18T08:18:49.685Z,9.57
2019-01-18T08:21:26.821Z,8.10
2019-01-18T08:23:54.220Z,7.93
2019-01-18T08:26:31.305Z,8.30
2019-01-18T08:28:59.939Z,8.73
2019-01-18T08:34:08.688Z,6.03
2019-01-18T08:36:42.828Z,7.00
2019-01-18T08:39:16.541Z,5.97
2019-01-18T08:41:47.917Z,8.13
2019-01-18T08:44:16.549Z,6.33
2019-01-18T08:46:47.715Z,7.07
2019-01-18T08:49:16.100Z,7.40
2019-01-18T08:51:45.458Z,5.20
2019-01-18T08:54:15.098Z,7.30
2019-01-18T08:56:46.413Z,4.60
2019-01-18T08:59:19.021Z,9.33
2019-01-18T09:01:50.070Z,4.13
2019-01-18T09:04:24.688Z,6.33
2019-01-18T09:06:55.796Z,5.87
2019-01-18T09:09:26.840Z,4.30
2019-01-18T09:11:55.229Z,4.00
2019-01-18T09:14:26.548Z,5.20
2019-01-18T09:16:56.577Z,4.90
2019-01-18T09:19:24.959Z,6.40
2019-01-18T09:21:53.353Z,5.53
2019-01-18T09:24:21.744Z,8.50
2019-01-18T09:26:57.424Z,7.17
2019-01-18T09:29:25.814Z,6.47
2019-01-18T09:32:02.864Z,8.33
2019-01-18T09:34:31.497Z,6.77
2019-01-18T09:37:04.248Z,8.20
2019-01-18T09:39:32.641Z,8.87
2019-01-18T09:42:09.945Z,8.27
2019-01-18T09:44:41.398Z,4.40
2019-01-18T09:47:09.768Z,6.13
2019-01-18T09:49:38.164Z,7.07
2019-01-18T09:52:09.357Z,7.23
2019-01-18T09:54:37.733Z,7.53
2019-01-18T09:57:07.398Z,5.23
2019-01-18T09:59:35.773Z,6.57
2019-01-18T10:02:07.166Z,6.27
2019-01-18T10:04:35.538Z,7.07
2019-01-18T10:07:04.066Z,4.60
2019-01-18T10:09:32.610Z,7.10
2019-01-18T10:12:04.141Z,4.93
2019-01-18T10:14:40.109Z,6.47
2019-01-18T10:17:10.120Z,5.97
2019-01-18T10:19:38.750Z,6.30
2019-01-18T10:22:10.350Z,6.77
2019-01-18T10:24:41.537Z,4.83
2019-01-18T10:27:09.944Z,5.57
2019-01-18T10:29:42.913Z,6.57
2019-01-18T10:32:11.575Z,4.43
2019-01-18T10:34:42.788Z,8.47
2019-01-18T10:37:12.809Z,6.20
2019-01-18T10:39:43.908Z,6.33
2019-01-18T10:42:18.496Z,8.13
2019-01-18T10:44:46.963Z,5.53
2019-01-18T10:47:17.033Z,9.30
2019-01-18T10:49:48.508Z,5.27
2019-01-18T10:52:20.668Z,6.33
2019-01-18T10:54:51.973Z,6.57
2019-01-18T10:57:27.672Z,6.00
2019-01-18T10:59:59.309Z,9.87
2019-01-18T11:02:35.336Z,7.60
2019-01-18T11:05:14.864Z,8.47
2019-01-18T11:07:46.320Z,9.20
2019-01-18T11:10:17.901Z,8.07
2019-01-18T11:12:47.144Z,4.23
2019-01-18T11:15:19.389Z,4.50
2019-01-18T11:17:47.789Z,5.10
2019-01-18T11:20:35.065Z,5.83
2019-01-18T11:23:05.174Z,6.00
2019-01-18T11:25:37.345Z,5.70
2019-01-18T11:28:07.378Z,6.13
2019-01-18T11:30:35.849Z,10.83
2019-01-18T11:33:10.977Z,7.30
2019-01-18T11:35:39.688Z,6.23
2019-01-18T11:38:11.037Z,4.50
2019-01-18T11:40:42.365Z,7.83
2019-01-18T11:43:10.981Z,6.70
2019-01-18T11:45:42.555Z,9.40
2019-01-18T11:48:15.265Z,8.00
2019-01-18T11:50:43.836Z,4.50
2019-01-18T11:53:13.870Z,11.30
2019-01-18T11:55:45.252Z,4.90
2019-01-18T11:58:22.626Z,6.63
2019-01-18T12:00:51.005Z,6.13
2019-01-18T12:03:19.863Z,11.20
2019-01-18T12:05:52.113Z,8.63
2019-01-18T12:08:26.590Z,6.20
2019-01-18T12:10:54.973Z,6.07
2019-01-18T12:13:26.158Z,4.83
2019-01-18T12:15:57.729Z,7.40
2019-01-18T12:18:28.862Z,4.40
2019-01-18T12:20:58.124Z,4.83
2019-01-18T12:23:32.298Z,7.23
2019-01-18T12:26:00.686Z,5.70
2019-01-18T12:28:38.048Z,7.13
2019-01-18T12:31:08.065Z,8.50
2019-01-18T12:33:39.650Z,6.13
2019-01-18T12:36:08.584Z,5.43
2019-01-18T12:38:39.805Z,7.80
2019-01-18T12:41:08.203Z,9.20
2019-01-18T12:43:37.889Z,5.03
2019-01-18T12:46:06.323Z,12.67
2019-01-18T12:48:36.345Z,5.33
2019-01-18T12:51:07.390Z,6.93
2019-01-18T12:53:38.471Z,4.63
2019-01-18T12:56:09.698Z,8.40
2019-01-18T12:58:38.585Z,5.83
2019-01-18T13:01:09.458Z,4.37
2019-01-18T13:03:44.851Z,6.07
2019-01-18T13:06:13.232Z,4.00
2019-01-18T13:08:44.526Z,4.57
2019-01-18T13:11:16.089Z,6.00
2019-01-18T13:13:44.705Z,8.27
2019-01-18T13:16:18.742Z,7.90
2019-01-18T13:18:53.013Z,4.90
2019-01-18T13:21:25.971Z,4.80
2019-01-18T13:23:51.748Z,4.90
2019-01-18T13:26:20.565Z,5.33
2019-01-18T13:28:48.953Z,4.37
2019-01-18T13:31:24.549Z,3.27
2019-01-18T13:33:52.969Z,3.27
2019-01-18T13:36:23.137Z,3.80
2019-01-18T13:38:51.521Z,6.30
2019-01-18T13:41:22.581Z,4.60
2019-01-18T13:43:55.314Z,3.37
2019-01-18T13:46:23.770Z,4.13
2019-01-18T13:48:52.220Z,5.90
2019-01-18T13:51:23.309Z,6.00
2019-01-18T13:53:54.386Z,3.50
2019-01-18T13:56:31.653Z,7.00
2019-01-18T13:59:06.099Z,7.70
2019-01-18T14:01:39.801Z,5.10
2019-01-18T14:04:08.244Z,6.07
2019-01-18T14:06:39.330Z,7.37
2019-01-18T14:09:13.868Z,5.37
2019-01-18T14:11:42.250Z,6.97
2019-01-18T14:14:13.693Z,3.73
2019-01-18T14:16:46.625Z,3.60
2019-01-18T14:19:17.723Z,5.30
2019-01-18T14:21:46.109Z,8.10
2019-01-18T14:24:14.493Z,3.27
2019-01-18T14:26:42.884Z,5.73
2019-01-18T14:29:11.510Z,6.23
2019-01-18T14:31:40.137Z,5.63
2019-01-18T14:34:08.569Z,5.57
2019-01-18T14:36:36.984Z,6.53
2019-01-18T14:39:09.815Z,5.03
2019-01-18T14:41:40.891Z,3.93
2019-01-18T14:44:12.109Z,4.83
2019-01-18T14:46:46.251Z,8.07
2019-01-18T14:49:17.305Z,7.73
2019-01-18T14:51:47.378Z,5.57
2019-01-18T14:54:17.413Z,5.90
2019-01-18T14:56:47.553Z,8.13
2019-01-18T14:59:17.516Z,5.37
2019-01-18T15:01:47.558Z,5.43
2019-01-18T15:04:17.816Z,7.83
2019-01-18T15:06:51.893Z,6.57
2019-01-18T15:09:26.288Z,4.50
2019-01-18T15:11:54.680Z,5.80
2019-01-18T15:14:26.034Z,6.07
2019-01-18T15:16:55.224Z,5.40
2019-01-18T15:19:26.324Z,4.10
2019-01-18T15:22:00.865Z,7.00
2019-01-18T15:24:32.284Z,4.77
2019-01-18T15:27:06.773Z,6.53
2019-01-18T15:29:35.150Z,5.20
2019-01-18T15:32:09.516Z,5.07
2019-01-18T15:34:37.897Z,5.63
2019-01-18T15:37:12.094Z,5.63
2019-01-18T15:39:36.617Z,5.33
2019-01-18T15:42:06.613Z,4.90
2019-01-18T15:44:36.644Z,5.53
2019-01-18T15:47:06.741Z,7.10
2019-01-18T15:49:40.946Z,7.63
2019-01-18T15:52:30.550Z,9.30
2019-01-18T15:55:03.285Z,4.93
2019-01-18T15:57:33.322Z,6.73
2019-01-18T16:00:16.573Z,6.00
2019-01-18T16:02:49.104Z,5.33
2019-01-18T16:05:23.213Z,8.00
2019-01-18T16:07:54.926Z,5.97
2019-01-18T16:10:25.865Z,6.20
2019-01-18T16:12:58.119Z,6.67
2019-01-18T16:15:29.949Z,10.00
2019-01-18T16:18:05.906Z,11.53
2019-01-18T16:20:37.258Z,10.13
2019-01-18T16:23:11.660Z,10.27
2019-01-18T16:25:44.222Z,11.83
2019-01-18T16:28:15.550Z,8.67
2019-01-18T16:30:46.862Z,11.40
2019-01-18T16:33:15.260Z,11.00
2019-01-18T16:35:49.898Z,10.50
2019-01-18T16:38:20.279Z,9.33
2019-01-18T16:40:53.369Z,15.47
2019-01-18T16:43:33.625Z,12.43
2019-01-18T16:46:05.075Z,8.67
2019-01-18T16:48:34.981Z,9.33
2019-01-18T16:51:04.143Z,11.93
2019-01-18T16:53:35.059Z,11.73
2019-01-18T16:56:05.152Z,11.07
2019-01-18T16:58:36.249Z,9.07
2019-01-18T17:01:25.693Z,15.67
2019-01-18T17:03:58.418Z,13.43
2019-01-18T17:06:29.425Z,11.77
2019-01-18T17:08:57.813Z,14.67
2019-01-18T17:11:27.850Z,21.93
2019-01-18T17:13:57.933Z,24.33
2019-01-18T17:16:29.245Z,21.23
2019-01-18T17:18:57.819Z,22.23
2019-01-18T17:21:27.925Z,25.53
2019-01-18T17:23:58.916Z,25.23
2019-01-18T17:26:37.886Z,23.40
2019-01-18T17:29:06.293Z,23.93
2019-01-18T17:31:40.670Z,20.40
2019-01-18T17:34:09.076Z,19.00
2019-01-18T17:36:37.465Z,16.47
2019-01-18T17:39:17.829Z,16.00
2019-01-18T17:41:49.326Z,19.97
2019-01-18T17:44:44.530Z,14.93
2019-01-18T17:47:16.001Z,15.83
2019-01-18T17:50:12.749Z,18.77
2019-01-18T17:53:12.896Z,18.37
2019-01-18T17:55:53.480Z,17.90
2019-01-18T17:58:43.062Z,16.27
2019-01-18T18:01:41.718Z,16.07
2019-01-18T18:04:23.624Z,15.10
2019-01-18T18:07:09.921Z,10.47
2019-01-18T18:09:44.679Z,14.77
2019-01-18T18:12:26.357Z,16.33
2019-01-18T18:15:08.233Z,15.83
2019-01-18T18:17:52.017Z,14.00
2019-01-18T18:20:28.353Z,18.47
2019-01-18T18:23:28.715Z,15.80
2019-01-18T18:26:09.278Z,17.53
2019-01-18T18:28:52.919Z,13.33
2019-01-18T18:31:51.130Z,10.93
2019-01-18T18:34:43.413Z,8.10
2019-01-18T18:37:35.785Z,10.60
2019-01-18T18:40:18.805Z,8.33
2019-01-18T18:43:02.072Z,10.07
2019-01-18T18:45:45.721Z,8.73
2019-01-18T18:48:31.083Z,9.03
2019-01-18T18:51:19.009Z,9.17
2019-01-18T18:54:25.463Z,25.47
2019-01-18T18:57:05.716Z,52.60
2019-01-18T18:59:53.731Z,80.53
2019-01-18T19:02:28.360Z,74.17
2019-01-18T19:05:27.339Z,30.67
2019-01-18T19:08:19.578Z,51.20
2019-01-18T19:10:55.536Z,76.53
2019-01-18T19:13:45.177Z,38.83
2019-01-18T19:16:16.629Z,43.00
2019-01-18T19:18:48.354Z,120.10
2019-01-18T19:21:50.030Z,174.77
2019-01-18T19:24:26.747Z,119.63
2019-01-18T19:27:02.588Z,56.63
2019-01-18T19:29:48.952Z,29.53
2019-01-18T19:32:32.446Z,25.90
2019-01-18T19:35:06.576Z,24.70
2019-01-18T19:38:03.556Z,24.60
2019-01-18T19:40:54.305Z,19.70
2019-01-18T19:43:30.166Z,20.10
2019-01-18T19:46:20.955Z,20.80
2019-01-18T19:49:11.854Z,21.17
2019-01-18T19:52:05.246Z,22.70
2019-01-18T19:55:01.538Z,23.53
2019-01-18T19:57:44.669Z,21.33
2019-01-18T20:00:36.399Z,15.13
2019-01-18T20:03:34.464Z,16.47
2019-01-18T20:06:31.465Z,17.30
2019-01-18T20:09:33.549Z,16.10
2019-01-18T20:12:22.762Z,19.47
2019-01-18T20:15:04.498Z,18.17
2019-01-18T20:17:41.769Z,21.23
2019-01-18T20:20:39.337Z,16.10
2019-01-18T20:23:46.791Z,20.40
2019-01-18T20:26:40.110Z,14.07
2019-01-18T20:29:11.249Z,18.50
2019-01-18T20:31:47.108Z,18.40
2019-01-18T20:34:27.380Z,15.60
2019-01-18T20:37:08.113Z,17.93
2019-01-18T20:40:03.554Z,21.47
2019-01-18T20:42:51.561Z,16.30
2019-01-18T20:45:45.393Z,15.30
2019-01-18T20:48:39.265Z,21.93
2019-01-18T20:51:28.557Z,17.77
2019-01-18T20:54:14.936Z,14.03
2019-01-18T20:56:48.065Z,17.53
2019-01-18T20:59:47.037Z,17.23
2019-01-18T21:02:27.855Z,16.67
2019-01-18T21:05:01.840Z,20.57
2019-01-18T21:07:39.255Z,22.20
2019-01-18T21:10:16.249Z,21.73
2019-01-18T21:12:53.710Z,24.23
2019-01-18T21:15:43.566Z,24.73
2019-01-18T21:18:26.825Z,18.77
2019-01-18T21:21:06.029Z,15.57
2019-01-18T21:23:59.509Z,17.70
2019-01-18T21:26:44.445Z,16.07
2019-01-18T21:29:35.325Z,16.60
2019-01-18T21:32:06.841Z,15.23
2019-01-18T21:35:03.796Z,14.90
2019-01-18T21:38:08.546Z,15.13
2019-01-18T21:40:53.737Z,16.90
2019-01-18T21:43:59.582Z,12.53
2019-01-18T21:46:45.411Z,13.77
2019-01-18T21:49:17.120Z,12.30
2019-01-18T21:52:13.616Z,13.07
2019-01-18T21:55:00.021Z,14.60
2019-01-18T21:57:37.471Z,10.53
2019-01-18T22:00:26.824Z,12.17
2019-01-18T22:03:12.894Z,14.60
2019-01-18T22:06:05.706Z,10.87
2019-01-18T22:08:37.421Z,14.03
2019-01-18T22:11:23.840Z,17.30
2019-01-18T22:14:07.057Z,10.47
2019-01-18T22:16:56.708Z,11.00
2019-01-18T22:19:39.453Z,13.27
2019-01-18T22:22:47.553Z,11.93
2019-01-18T22:25:32.689Z,10.47
2019-01-18T22:28:06.999Z,15.20
2019-01-18T22:30:43.988Z,13.33
2019-01-18T22:33:20.830Z,11.33
2019-01-18T22:36:06.592Z,16.77
2019-01-18T22:39:09.255Z,15.20
2019-01-18T22:41:46.365Z,14.30
2019-01-18T22:44:38.327Z,14.10
2019-01-18T22:47:38.559Z,11.90
2019-01-18T22:50:21.601Z,8.93
2019-01-18T22:53:09.818Z,9.57
2019-01-18T22:56:16.362Z,11.07
2019-01-18T22:59:09.105Z,15.33
2019-01-18T23:01:55.971Z,11.47
2019-01-18T23:04:33.173Z,11.70
2019-01-18T23:07:10.461Z,12.07
2019-01-18T23:09:53.751Z,12.23
2019-01-18T23:12:34.737Z,13.27
2019-01-18T23:15:36.343Z,14.70
2019-01-18T23:18:35.515Z,12.20
2019-01-18T23:21:33.141Z,11.67
2019-01-18T23:24:09.138Z,13.97
2019-01-18T23:26:49.341Z,14.83
2019-01-18T23:29:44.782Z,12.40
2019-01-18T23:32:47.995Z,12.50
2019-01-18T23:35:28.177Z,13.77
2019-01-18T23:38:08.416Z,12.60
2019-01-18T23:40:37.373Z,15.70
2019-01-18T23:43:31.453Z,12.70
2019-01-18T23:46:05.905Z,16.17
2019-01-18T23:49:03.594Z,12.30
2019-01-18T23:52:01.106Z,13.17
2019-01-18T23:54:55.594Z,17.73
2019-01-18T23:57:44.878Z,15.70
